sensor_id;sensor_type;location;lat;lon;timestamp;temperature;humidity
22491;DHT22;11412;50.802;4.350;2024-03-02T00:00:42;8.20;99.90
22491;DHT22;11412;50.802;4.350;2024-03-02T00:03:08;8.30;99.90
22491;DHT22;11412;50.802;4.350;2024-03-02T00:05:36;8.10;99.90
22491;DHT22;11412;50.802;4.350;2024-03-02T00:08:04;7.80;99.90
22491;DHT22;11412;50.802;4.350;2024-03-02T00:10:40;7.70;99.90
22491;DHT22;11412;50.802;4.350;2024-03-02T00:13:07;7.70;99.90
22491;DHT22;11412;50.802;4.350;2024-03-02T00:18:04;7.90;99.90
22491;DHT22;11412;50.802;4.350;2024-03-02T00:20:31;8.00;99.90
22491;DHT22;11412;50.802;4.350;2024-03-02T00:23:07;8.10;99.90
22491;DHT22;11412;50.802;4.350;2024-03-02T00:25:43;8.10;99.90
22491;DHT22;11412;50.802;4.350;2024-03-02T00:28:33;7.70;99.90
22491;DHT22;11412;50.802;4.350;2024-03-02T00:33:34;7.80;99.90
22491;DHT22;11412;50.802;4.350;2024-03-02T00:36:02;7.80;99.90
22491;DHT22;11412;50.802;4.350;2024-03-02T00:38:29;7.90;99.90
22491;DHT22;11412;50.802;4.350;2024-03-02T00:40:58;8.00;99.90
22491;DHT22;11412;50.802;4.350;2024-03-02T00:46:19;7.70;99.90
22491;DHT22;11412;50.802;4.350;2024-03-02T00:51:17;7.70;99.90
22491;DHT22;11412;50.802;4.350;2024-03-02T00:53:43;7.80;99.90
22491;DHT22;11412;50.802;4.350;2024-03-02T00:56:11;7.70;99.90
22491;DHT22;11412;50.802;4.350;2024-03-02T00:58:38;7.60;99.90
22491;DHT22;11412;50.802;4.350;2024-03-02T01:01:04;7.70;99.90
22491;DHT22;11412;50.802;4.350;2024-03-02T01:03:31;8.10;99.90
22491;DHT22;11412;50.802;4.350;2024-03-02T01:05:57;8.10;99.90
22491;DHT22;11412;50.802;4.350;2024-03-02T01:08:24;8.10;99.90
22491;DHT22;11412;50.802;4.350;2024-03-02T01:10:50;8.10;99.90
22491;DHT22;11412;50.802;4.350;2024-03-02T01:13:15;8.10;99.90
22491;DHT22;11412;50.802;4.350;2024-03-02T01:15:41;7.80;99.90
22491;DHT22;11412;50.802;4.350;2024-03-02T01:18:07;7.80;99.90
22491;DHT22;11412;50.802;4.350;2024-03-02T01:20:33;7.60;99.90
22491;DHT22;11412;50.802;4.350;2024-03-02T01:22:59;7.70;99.90
22491;DHT22;11412;50.802;4.350;2024-03-02T01:25:24;7.60;99.90
22491;DHT22;11412;50.802;4.350;2024-03-02T01:27:50;7.70;99.90
22491;DHT22;11412;50.802;4.350;2024-03-02T01:30:16;7.70;99.90
22491;DHT22;11412;50.802;4.350;2024-03-02T01:32:41;7.70;99.90
22491;DHT22;11412;50.802;4.350;2024-03-02T01:35:07;7.60;99.90
22491;DHT22;11412;50.802;4.350;2024-03-02T01:37:33;7.60;99.90
22491;DHT22;11412;50.802;4.350;2024-03-02T01:39:59;7.50;99.90
22491;DHT22;11412;50.802;4.350;2024-03-02T01:42:24;7.70;99.90
22491;DHT22;11412;50.802;4.350;2024-03-02T01:44:51;7.80;99.90
22491;DHT22;11412;50.802;4.350;2024-03-02T01:47:16;7.70;99.90
22491;DHT22;11412;50.802;4.350;2024-03-02T01:49:42;8.00;99.90
22491;DHT22;11412;50.802;4.350;2024-03-02T01:52:08;7.80;99.90
22491;DHT22;11412;50.802;4.350;2024-03-02T01:54:34;7.90;99.90
22491;DHT22;11412;50.802;4.350;2024-03-02T01:57:00;8.00;99.90
22491;DHT22;11412;50.802;4.350;2024-03-02T01:59:25;8.20;99.90
22491;DHT22;11412;50.802;4.350;2024-03-02T02:01:51;8.00;99.90
22491;DHT22;11412;50.802;4.350;2024-03-02T02:04:17;7.90;99.90
22491;DHT22;11412;50.802;4.350;2024-03-02T02:06:45;7.90;99.90
22491;DHT22;11412;50.802;4.350;2024-03-02T02:09:11;7.90;99.90
22491;DHT22;11412;50.802;4.350;2024-03-02T02:11:37;8.00;99.90
22491;DHT22;11412;50.802;4.350;2024-03-02T02:14:06;8.00;99.90
22491;DHT22;11412;50.802;4.350;2024-03-02T02:16:31;8.00;99.90
22491;DHT22;11412;50.802;4.350;2024-03-02T02:18:57;8.20;99.90
22491;DHT22;11412;50.802;4.350;2024-03-02T02:21:23;8.00;99.90
22491;DHT22;11412;50.802;4.350;2024-03-02T02:23:48;7.90;99.90
22491;DHT22;11412;50.802;4.350;2024-03-02T02:26:15;8.00;99.90
22491;DHT22;11412;50.802;4.350;2024-03-02T02:28:41;8.30;99.90
22491;DHT22;11412;50.802;4.350;2024-03-02T02:31:13;8.30;99.90
22491;DHT22;11412;50.802;4.350;2024-03-02T02:33:42;8.00;99.90
22491;DHT22;11412;50.802;4.350;2024-03-02T02:36:08;7.80;99.90
22491;DHT22;11412;50.802;4.350;2024-03-02T02:38:39;8.00;99.90
22491;DHT22;11412;50.802;4.350;2024-03-02T02:41:05;8.30;99.90
22491;DHT22;11412;50.802;4.350;2024-03-02T02:43:32;8.10;99.90
22491;DHT22;11412;50.802;4.350;2024-03-02T02:45:58;8.00;99.90
22491;DHT22;11412;50.802;4.350;2024-03-02T02:48:23;8.10;99.90
22491;DHT22;11412;50.802;4.350;2024-03-02T02:50:49;7.90;99.90
22491;DHT22;11412;50.802;4.350;2024-03-02T02:53:15;7.70;99.90
22491;DHT22;11412;50.802;4.350;2024-03-02T02:55:40;7.80;99.90
22491;DHT22;11412;50.802;4.350;2024-03-02T02:58:06;7.90;99.90
22491;DHT22;11412;50.802;4.350;2024-03-02T03:00:32;7.80;99.90
22491;DHT22;11412;50.802;4.350;2024-03-02T03:02:58;7.80;99.90
22491;DHT22;11412;50.802;4.350;2024-03-02T03:05:25;7.80;99.90
22491;DHT22;11412;50.802;4.350;2024-03-02T03:07:51;7.80;99.90
22491;DHT22;11412;50.802;4.350;2024-03-02T03:10:18;7.70;99.90
22491;DHT22;11412;50.802;4.350;2024-03-02T03:12:44;7.40;99.90
22491;DHT22;11412;50.802;4.350;2024-03-02T03:15:10;7.60;99.90
22491;DHT22;11412;50.802;4.350;2024-03-02T03:17:36;7.60;99.90
22491;DHT22;11412;50.802;4.350;2024-03-02T03:20:03;7.50;99.90
22491;DHT22;11412;50.802;4.350;2024-03-02T03:22:30;7.50;99.90
22491;DHT22;11412;50.802;4.350;2024-03-02T03:24:57;7.40;99.90
22491;DHT22;11412;50.802;4.350;2024-03-02T03:27:22;7.50;99.90
22491;DHT22;11412;50.802;4.350;2024-03-02T03:29:48;7.60;99.90
22491;DHT22;11412;50.802;4.350;2024-03-02T03:32:14;7.60;99.90
22491;DHT22;11412;50.802;4.350;2024-03-02T03:34:40;7.70;99.90
22491;DHT22;11412;50.802;4.350;2024-03-02T03:37:07;7.70;99.90
22491;DHT22;11412;50.802;4.350;2024-03-02T03:39:34;7.70;99.90
22491;DHT22;11412;50.802;4.350;2024-03-02T03:42:01;7.70;99.90
22491;DHT22;11412;50.802;4.350;2024-03-02T03:44:26;7.40;99.90
22491;DHT22;11412;50.802;4.350;2024-03-02T03:46:52;7.60;99.90
22491;DHT22;11412;50.802;4.350;2024-03-02T03:49:18;7.60;99.90
22491;DHT22;11412;50.802;4.350;2024-03-02T03:51:43;7.70;99.90
22491;DHT22;11412;50.802;4.350;2024-03-02T03:54:09;7.80;99.90
22491;DHT22;11412;50.802;4.350;2024-03-02T03:56:37;8.00;99.90
22491;DHT22;11412;50.802;4.350;2024-03-02T03:59:02;7.90;99.90
22491;DHT22;11412;50.802;4.350;2024-03-02T04:01:28;7.70;99.90
22491;DHT22;11412;50.802;4.350;2024-03-02T04:03:54;7.70;99.90
22491;DHT22;11412;50.802;4.350;2024-03-02T04:06:19;7.50;99.90
22491;DHT22;11412;50.802;4.350;2024-03-02T04:08:45;7.70;99.90
22491;DHT22;11412;50.802;4.350;2024-03-02T04:11:11;7.70;99.90
22491;DHT22;11412;50.802;4.350;2024-03-02T04:13:36;7.80;99.90
22491;DHT22;11412;50.802;4.350;2024-03-02T04:16:02;7.50;99.90
22491;DHT22;11412;50.802;4.350;2024-03-02T04:18:29;7.50;99.90
22491;DHT22;11412;50.802;4.350;2024-03-02T04:20:54;7.70;99.90
22491;DHT22;11412;50.802;4.350;2024-03-02T04:23:20;7.70;99.90
22491;DHT22;11412;50.802;4.350;2024-03-02T04:25:46;7.70;99.90
22491;DHT22;11412;50.802;4.350;2024-03-02T04:28:11;7.50;99.90
22491;DHT22;11412;50.802;4.350;2024-03-02T04:30:38;7.70;99.90
22491;DHT22;11412;50.802;4.350;2024-03-02T04:33:04;7.70;99.90
22491;DHT22;11412;50.802;4.350;2024-03-02T04:35:31;7.80;99.90
22491;DHT22;11412;50.802;4.350;2024-03-02T04:37:56;7.90;99.90
22491;DHT22;11412;50.802;4.350;2024-03-02T04:40:22;8.00;99.90
22491;DHT22;11412;50.802;4.350;2024-03-02T04:42:47;7.80;99.90
22491;DHT22;11412;50.802;4.350;2024-03-02T04:45:13;7.70;99.90
22491;DHT22;11412;50.802;4.350;2024-03-02T04:47:39;7.40;99.90
22491;DHT22;11412;50.802;4.350;2024-03-02T04:50:05;7.60;99.90
22491;DHT22;11412;50.802;4.350;2024-03-02T04:52:34;7.50;99.90
22491;DHT22;11412;50.802;4.350;2024-03-02T04:54:59;7.50;99.90
22491;DHT22;11412;50.802;4.350;2024-03-02T04:57:44;7.30;99.90
22491;DHT22;11412;50.802;4.350;2024-03-02T05:00:10;7.30;99.90
22491;DHT22;11412;50.802;4.350;2024-03-02T05:02:37;7.40;99.90
22491;DHT22;11412;50.802;4.350;2024-03-02T05:05:02;7.30;99.90
22491;DHT22;11412;50.802;4.350;2024-03-02T05:07:28;7.40;99.90
22491;DHT22;11412;50.802;4.350;2024-03-02T05:09:55;7.40;99.90
22491;DHT22;11412;50.802;4.350;2024-03-02T05:12:20;7.30;99.90
22491;DHT22;11412;50.802;4.350;2024-03-02T05:15:05;7.20;99.90
22491;DHT22;11412;50.802;4.350;2024-03-02T05:17:32;7.10;99.90
22491;DHT22;11412;50.802;4.350;2024-03-02T05:19:58;7.00;99.90
22491;DHT22;11412;50.802;4.350;2024-03-02T05:22:24;7.00;99.90
22491;DHT22;11412;50.802;4.350;2024-03-02T05:24:49;6.90;99.90
22491;DHT22;11412;50.802;4.350;2024-03-02T05:27:15;6.80;99.90
22491;DHT22;11412;50.802;4.350;2024-03-02T05:29:41;6.80;99.90
22491;DHT22;11412;50.802;4.350;2024-03-02T05:32:07;6.70;99.90
22491;DHT22;11412;50.802;4.350;2024-03-02T05:34:32;6.60;99.90
22491;DHT22;11412;50.802;4.350;2024-03-02T05:37:01;6.60;99.90
22491;DHT22;11412;50.802;4.350;2024-03-02T05:39:27;6.60;99.90
22491;DHT22;11412;50.802;4.350;2024-03-02T05:41:53;6.70;99.90
22491;DHT22;11412;50.802;4.350;2024-03-02T05:44:18;6.70;99.90
22491;DHT22;11412;50.802;4.350;2024-03-02T05:46:45;6.60;99.90
22491;DHT22;11412;50.802;4.350;2024-03-02T05:49:11;6.60;99.90
22491;DHT22;11412;50.802;4.350;2024-03-02T05:51:36;6.70;99.90
22491;DHT22;11412;50.802;4.350;2024-03-02T05:54:02;6.80;99.90
22491;DHT22;11412;50.802;4.350;2024-03-02T05:56:28;6.90;99.90
22491;DHT22;11412;50.802;4.350;2024-03-02T05:58:54;6.90;99.90
22491;DHT22;11412;50.802;4.350;2024-03-02T06:01:45;6.90;99.90
22491;DHT22;11412;50.802;4.350;2024-03-02T06:04:12;6.60;99.90
22491;DHT22;11412;50.802;4.350;2024-03-02T06:06:38;6.60;99.90
22491;DHT22;11412;50.802;4.350;2024-03-02T06:09:04;6.80;99.90
22491;DHT22;11412;50.802;4.350;2024-03-02T06:11:36;7.00;99.90
22491;DHT22;11412;50.802;4.350;2024-03-02T06:14:03;6.90;99.90
22491;DHT22;11412;50.802;4.350;2024-03-02T06:16:29;6.70;99.90
22491;DHT22;11412;50.802;4.350;2024-03-02T06:18:55;6.70;99.90
22491;DHT22;11412;50.802;4.350;2024-03-02T06:21:23;6.70;99.90
22491;DHT22;11412;50.802;4.350;2024-03-02T06:23:49;6.70;99.90
22491;DHT22;11412;50.802;4.350;2024-03-02T06:26:15;6.50;99.90
22491;DHT22;11412;50.802;4.350;2024-03-02T06:28:41;6.60;99.90
22491;DHT22;11412;50.802;4.350;2024-03-02T06:31:07;6.60;99.90
22491;DHT22;11412;50.802;4.350;2024-03-02T06:33:32;6.80;99.90
22491;DHT22;11412;50.802;4.350;2024-03-02T06:35:58;6.70;99.90
22491;DHT22;11412;50.802;4.350;2024-03-02T06:38:24;6.80;99.90
22491;DHT22;11412;50.802;4.350;2024-03-02T06:40:49;6.80;99.90
22491;DHT22;11412;50.802;4.350;2024-03-02T06:43:15;6.70;99.90
22491;DHT22;11412;50.802;4.350;2024-03-02T06:45:41;6.80;99.90
22491;DHT22;11412;50.802;4.350;2024-03-02T06:48:07;6.80;99.90
22491;DHT22;11412;50.802;4.350;2024-03-02T06:50:33;6.70;99.90
22491;DHT22;11412;50.802;4.350;2024-03-02T06:52:58;6.60;99.90
22491;DHT22;11412;50.802;4.350;2024-03-02T06:55:24;6.80;99.90
22491;DHT22;11412;50.802;4.350;2024-03-02T06:57:51;7.00;99.90
22491;DHT22;11412;50.802;4.350;2024-03-02T07:00:17;7.10;99.90
22491;DHT22;11412;50.802;4.350;2024-03-02T07:02:44;7.10;99.90
22491;DHT22;11412;50.802;4.350;2024-03-02T07:05:10;7.10;99.90
22491;DHT22;11412;50.802;4.350;2024-03-02T07:07:37;7.00;99.90
22491;DHT22;11412;50.802;4.350;2024-03-02T07:10:05;7.00;99.90
22491;DHT22;11412;50.802;4.350;2024-03-02T07:12:33;7.10;99.90
22491;DHT22;11412;50.802;4.350;2024-03-02T07:15:00;7.10;99.90
22491;DHT22;11412;50.802;4.350;2024-03-02T07:17:33;7.10;99.90
22491;DHT22;11412;50.802;4.350;2024-03-02T07:19:59;7.30;99.90
22491;DHT22;11412;50.802;4.350;2024-03-02T07:22:24;7.40;99.90
22491;DHT22;11412;50.802;4.350;2024-03-02T07:24:50;7.10;99.90
22491;DHT22;11412;50.802;4.350;2024-03-02T07:27:17;7.10;99.90
22491;DHT22;11412;50.802;4.350;2024-03-02T07:29:43;7.20;99.90
22491;DHT22;11412;50.802;4.350;2024-03-02T07:32:09;7.20;99.90
22491;DHT22;11412;50.802;4.350;2024-03-02T07:34:36;7.30;99.90
22491;DHT22;11412;50.802;4.350;2024-03-02T07:37:01;7.30;99.90
22491;DHT22;11412;50.802;4.350;2024-03-02T07:39:27;7.60;99.90
22491;DHT22;11412;50.802;4.350;2024-03-02T07:41:53;7.40;99.90
22491;DHT22;11412;50.802;4.350;2024-03-02T07:44:18;7.50;99.90
22491;DHT22;11412;50.802;4.350;2024-03-02T07:46:48;7.50;99.90
22491;DHT22;11412;50.802;4.350;2024-03-02T07:49:17;7.40;99.90
22491;DHT22;11412;50.802;4.350;2024-03-02T07:51:43;7.40;99.90
22491;DHT22;11412;50.802;4.350;2024-03-02T07:54:09;7.60;99.90
22491;DHT22;11412;50.802;4.350;2024-03-02T07:56:35;7.80;99.90
22491;DHT22;11412;50.802;4.350;2024-03-02T07:59:04;8.00;99.90
22491;DHT22;11412;50.802;4.350;2024-03-02T08:01:31;7.90;99.90
22491;DHT22;11412;50.802;4.350;2024-03-02T08:03:59;8.10;99.90
22491;DHT22;11412;50.802;4.350;2024-03-02T08:06:27;8.00;99.90
22491;DHT22;11412;50.802;4.350;2024-03-02T08:08:59;8.10;99.90
22491;DHT22;11412;50.802;4.350;2024-03-02T08:11:25;8.10;99.90
22491;DHT22;11412;50.802;4.350;2024-03-02T08:13:50;8.10;99.90
22491;DHT22;11412;50.802;4.350;2024-03-02T08:16:18;8.00;99.90
22491;DHT22;11412;50.802;4.350;2024-03-02T08:18:51;8.20;99.90
22491;DHT22;11412;50.802;4.350;2024-03-02T08:21:17;8.60;99.90
22491;DHT22;11412;50.802;4.350;2024-03-02T08:23:43;8.50;99.90
22491;DHT22;11412;50.802;4.350;2024-03-02T08:26:10;8.80;99.90
22491;DHT22;11412;50.802;4.350;2024-03-02T08:28:36;9.10;99.90
22491;DHT22;11412;50.802;4.350;2024-03-02T08:31:06;9.60;99.90
22491;DHT22;11412;50.802;4.350;2024-03-02T08:33:33;10.20;99.90
22491;DHT22;11412;50.802;4.350;2024-03-02T08:35:59;10.70;99.90
22491;DHT22;11412;50.802;4.350;2024-03-02T08:38:25;10.70;99.90
22491;DHT22;11412;50.802;4.350;2024-03-02T08:40:54;11.30;99.90
22491;DHT22;11412;50.802;4.350;2024-03-02T08:43:20;11.80;99.90
22491;DHT22;11412;50.802;4.350;2024-03-02T08:45:45;13.00;99.90
22491;DHT22;11412;50.802;4.350;2024-03-02T08:48:12;14.20;99.90
22491;DHT22;11412;50.802;4.350;2024-03-02T08:50:38;14.50;99.90
22491;DHT22;11412;50.802;4.350;2024-03-02T08:53:04;14.90;99.90
22491;DHT22;11412;50.802;4.350;2024-03-02T08:55:30;15.20;99.90
22491;DHT22;11412;50.802;4.350;2024-03-02T08:57:56;15.50;99.90
22491;DHT22;11412;50.802;4.350;2024-03-02T09:00:22;15.30;99.90
22491;DHT22;11412;50.802;4.350;2024-03-02T09:02:48;15.90;99.90
22491;DHT22;11412;50.802;4.350;2024-03-02T09:05:14;15.20;99.90
22491;DHT22;11412;50.802;4.350;2024-03-02T09:07:41;15.50;99.90
22491;DHT22;11412;50.802;4.350;2024-03-02T09:10:07;15.60;99.90
22491;DHT22;11412;50.802;4.350;2024-03-02T09:12:34;14.50;99.90
22491;DHT22;11412;50.802;4.350;2024-03-02T09:15:00;14.90;99.90
22491;DHT22;11412;50.802;4.350;2024-03-02T09:17:26;15.20;99.90
22491;DHT22;11412;50.802;4.350;2024-03-02T09:19:52;14.20;99.90
22491;DHT22;11412;50.802;4.350;2024-03-02T09:22:20;14.10;99.90
22491;DHT22;11412;50.802;4.350;2024-03-02T09:24:46;13.60;99.90
22491;DHT22;11412;50.802;4.350;2024-03-02T09:27:12;13.70;99.90
22491;DHT22;11412;50.802;4.350;2024-03-02T09:29:38;14.40;99.90
22491;DHT22;11412;50.802;4.350;2024-03-02T09:32:05;13.90;99.90
22491;DHT22;11412;50.802;4.350;2024-03-02T09:34:31;14.10;99.90
22491;DHT22;11412;50.802;4.350;2024-03-02T09:36:58;13.50;99.90
22491;DHT22;11412;50.802;4.350;2024-03-02T09:39:24;12.90;99.90
22491;DHT22;11412;50.802;4.350;2024-03-02T09:41:53;12.60;99.90
22491;DHT22;11412;50.802;4.350;2024-03-02T09:44:20;12.30;99.90
22491;DHT22;11412;50.802;4.350;2024-03-02T09:46:51;12.40;99.90
22491;DHT22;11412;50.802;4.350;2024-03-02T09:49:16;12.30;99.90
22491;DHT22;11412;50.802;4.350;2024-03-02T09:51:51;12.20;99.90
22491;DHT22;11412;50.802;4.350;2024-03-02T09:54:17;12.40;99.90
22491;DHT22;11412;50.802;4.350;2024-03-02T09:56:44;12.30;99.90
22491;DHT22;11412;50.802;4.350;2024-03-02T09:59:10;12.50;99.90
22491;DHT22;11412;50.802;4.350;2024-03-02T10:01:35;12.80;99.90
22491;DHT22;11412;50.802;4.350;2024-03-02T10:04:01;12.90;99.90
22491;DHT22;11412;50.802;4.350;2024-03-02T10:06:28;13.20;99.90
22491;DHT22;11412;50.802;4.350;2024-03-02T10:08:55;13.20;99.90
22491;DHT22;11412;50.802;4.350;2024-03-02T10:14:11;14.10;99.90
22491;DHT22;11412;50.802;4.350;2024-03-02T10:16:40;14.40;99.90
22491;DHT22;11412;50.802;4.350;2024-03-02T10:19:22;14.60;99.90
22491;DHT22;11412;50.802;4.350;2024-03-02T10:21:50;14.50;99.90
22491;DHT22;11412;50.802;4.350;2024-03-02T10:24:17;14.30;99.90
22491;DHT22;11412;50.802;4.350;2024-03-02T10:26:43;14.10;99.90
22491;DHT22;11412;50.802;4.350;2024-03-02T10:29:10;14.70;99.90
22491;DHT22;11412;50.802;4.350;2024-03-02T10:31:40;15.00;99.90
22491;DHT22;11412;50.802;4.350;2024-03-02T10:34:08;15.30;99.90
22491;DHT22;11412;50.802;4.350;2024-03-02T10:36:38;15.10;99.90
22491;DHT22;11412;50.802;4.350;2024-03-02T10:39:06;15.30;99.90
22491;DHT22;11412;50.802;4.350;2024-03-02T10:41:37;15.30;99.90
22491;DHT22;11412;50.802;4.350;2024-03-02T10:44:08;15.10;99.90
22491;DHT22;11412;50.802;4.350;2024-03-02T10:46:36;14.90;99.90
22491;DHT22;11412;50.802;4.350;2024-03-02T10:49:04;15.50;99.90
22491;DHT22;11412;50.802;4.350;2024-03-02T10:51:32;15.80;99.90
22491;DHT22;11412;50.802;4.350;2024-03-02T10:53:59;15.50;99.90
22491;DHT22;11412;50.802;4.350;2024-03-02T10:56:33;15.10;99.90
22491;DHT22;11412;50.802;4.350;2024-03-02T11:01:32;14.20;99.90
22491;DHT22;11412;50.802;4.350;2024-03-02T11:04:02;14.30;99.90
22491;DHT22;11412;50.802;4.350;2024-03-02T11:06:30;14.10;99.90
22491;DHT22;11412;50.802;4.350;2024-03-02T11:09:00;14.00;99.90
22491;DHT22;11412;50.802;4.350;2024-03-02T11:11:30;13.80;99.90
22491;DHT22;11412;50.802;4.350;2024-03-02T11:14:01;13.70;99.90
22491;DHT22;11412;50.802;4.350;2024-03-02T11:16:34;13.70;99.90
22491;DHT22;11412;50.802;4.350;2024-03-02T11:19:07;13.90;99.90
22491;DHT22;11412;50.802;4.350;2024-03-02T11:21:35;14.00;99.90
22491;DHT22;11412;50.802;4.350;2024-03-02T11:26:53;14.40;99.90
22491;DHT22;11412;50.802;4.350;2024-03-02T11:32:13;14.50;99.90
22491;DHT22;11412;50.802;4.350;2024-03-02T11:34:42;13.90;99.90
22491;DHT22;11412;50.802;4.350;2024-03-02T11:37:12;14.10;99.90
22491;DHT22;11412;50.802;4.350;2024-03-02T11:39:39;14.40;99.90
22491;DHT22;11412;50.802;4.350;2024-03-02T11:42:06;14.50;99.90
22491;DHT22;11412;50.802;4.350;2024-03-02T11:44:36;15.00;99.90
22491;DHT22;11412;50.802;4.350;2024-03-02T11:47:06;15.70;99.90
22491;DHT22;11412;50.802;4.350;2024-03-02T11:49:38;16.30;99.90
22491;DHT22;11412;50.802;4.350;2024-03-02T11:52:05;16.30;99.90
22491;DHT22;11412;50.802;4.350;2024-03-02T11:54:33;16.50;99.90
22491;DHT22;11412;50.802;4.350;2024-03-02T11:57:02;16.50;99.90
22491;DHT22;11412;50.802;4.350;2024-03-02T11:59:29;16.20;99.90
22491;DHT22;11412;50.802;4.350;2024-03-02T12:01:55;15.80;99.90
22491;DHT22;11412;50.802;4.350;2024-03-02T12:04:24;15.50;99.90
22491;DHT22;11412;50.802;4.350;2024-03-02T12:06:58;14.90;99.90
22491;DHT22;11412;50.802;4.350;2024-03-02T12:09:26;14.70;99.90
22491;DHT22;11412;50.802;4.350;2024-03-02T12:12:09;14.70;99.90
22491;DHT22;11412;50.802;4.350;2024-03-02T12:14:38;14.20;99.90
22491;DHT22;11412;50.802;4.350;2024-03-02T12:17:05;13.90;99.90
22491;DHT22;11412;50.802;4.350;2024-03-02T12:19:31;13.80;99.90
22491;DHT22;11412;50.802;4.350;2024-03-02T12:21:58;14.30;99.90
22491;DHT22;11412;50.802;4.350;2024-03-02T12:24:26;15.10;99.90
22491;DHT22;11412;50.802;4.350;2024-03-02T12:26:53;15.60;99.90
22491;DHT22;11412;50.802;4.350;2024-03-02T12:29:19;15.70;99.90
22491;DHT22;11412;50.802;4.350;2024-03-02T12:31:51;15.80;99.90
22491;DHT22;11412;50.802;4.350;2024-03-02T12:34:18;15.60;99.90
22491;DHT22;11412;50.802;4.350;2024-03-02T12:36:47;15.10;99.90
22491;DHT22;11412;50.802;4.350;2024-03-02T12:39:16;15.00;99.90
22491;DHT22;11412;50.802;4.350;2024-03-02T12:41:42;15.00;99.90
22491;DHT22;11412;50.802;4.350;2024-03-02T12:44:08;15.00;99.90
22491;DHT22;11412;50.802;4.350;2024-03-02T12:46:34;14.60;99.90
22491;DHT22;11412;50.802;4.350;2024-03-02T12:49:12;14.50;99.90
22491;DHT22;11412;50.802;4.350;2024-03-02T12:51:39;14.50;99.90
22491;DHT22;11412;50.802;4.350;2024-03-02T12:54:09;14.70;99.90
22491;DHT22;11412;50.802;4.350;2024-03-02T12:56:40;14.70;99.90
22491;DHT22;11412;50.802;4.350;2024-03-02T12:59:06;14.70;99.90
22491;DHT22;11412;50.802;4.350;2024-03-02T13:01:31;14.80;99.90
22491;DHT22;11412;50.802;4.350;2024-03-02T13:03:58;14.90;99.90
22491;DHT22;11412;50.802;4.350;2024-03-02T13:06:25;14.70;99.90
22491;DHT22;11412;50.802;4.350;2024-03-02T13:08:54;14.90;99.90
22491;DHT22;11412;50.802;4.350;2024-03-02T13:11:21;14.70;99.90
22491;DHT22;11412;50.802;4.350;2024-03-02T13:13:48;14.20;99.90
22491;DHT22;11412;50.802;4.350;2024-03-02T13:16:14;14.40;99.90
22491;DHT22;11412;50.802;4.350;2024-03-02T13:18:41;14.50;99.90
22491;DHT22;11412;50.802;4.350;2024-03-02T13:21:08;14.10;99.90
22491;DHT22;11412;50.802;4.350;2024-03-02T13:23:34;14.00;99.90
22491;DHT22;11412;50.802;4.350;2024-03-02T13:26:00;14.00;99.90
22491;DHT22;11412;50.802;4.350;2024-03-02T13:28:26;14.10;99.90
22491;DHT22;11412;50.802;4.350;2024-03-02T13:30:52;14.00;99.90
22491;DHT22;11412;50.802;4.350;2024-03-02T13:33:18;13.90;99.90
22491;DHT22;11412;50.802;4.350;2024-03-02T13:35:50;14.00;99.90
22491;DHT22;11412;50.802;4.350;2024-03-02T13:38:19;13.70;99.90
22491;DHT22;11412;50.802;4.350;2024-03-02T13:40:46;13.70;99.90
22491;DHT22;11412;50.802;4.350;2024-03-02T13:43:14;13.90;99.90
22491;DHT22;11412;50.802;4.350;2024-03-02T13:45:39;14.00;99.90
22491;DHT22;11412;50.802;4.350;2024-03-02T13:48:06;13.90;99.90
22491;DHT22;11412;50.802;4.350;2024-03-02T13:50:32;14.10;99.90
22491;DHT22;11412;50.802;4.350;2024-03-02T13:52:58;14.20;99.90
22491;DHT22;11412;50.802;4.350;2024-03-02T13:55:24;14.10;99.90
22491;DHT22;11412;50.802;4.350;2024-03-02T13:57:49;14.10;99.90
22491;DHT22;11412;50.802;4.350;2024-03-02T14:00:16;13.90;99.90
22491;DHT22;11412;50.802;4.350;2024-03-02T14:02:43;13.80;99.90
22491;DHT22;11412;50.802;4.350;2024-03-02T14:05:09;13.80;99.90
22491;DHT22;11412;50.802;4.350;2024-03-02T14:07:40;13.80;99.90
22491;DHT22;11412;50.802;4.350;2024-03-02T14:10:06;13.90;99.90
22491;DHT22;11412;50.802;4.350;2024-03-02T14:12:32;13.80;99.90
22491;DHT22;11412;50.802;4.350;2024-03-02T14:14:57;13.80;99.90
22491;DHT22;11412;50.802;4.350;2024-03-02T14:17:25;13.70;99.90
22491;DHT22;11412;50.802;4.350;2024-03-02T14:19:50;13.90;99.90
22491;DHT22;11412;50.802;4.350;2024-03-02T14:22:18;13.90;99.90
22491;DHT22;11412;50.802;4.350;2024-03-02T14:24:46;13.60;99.90
22491;DHT22;11412;50.802;4.350;2024-03-02T14:27:12;13.30;99.90
22491;DHT22;11412;50.802;4.350;2024-03-02T14:29:39;13.40;99.90
22491;DHT22;11412;50.802;4.350;2024-03-02T14:32:06;13.30;99.90
22491;DHT22;11412;50.802;4.350;2024-03-02T14:34:31;13.20;99.90
22491;DHT22;11412;50.802;4.350;2024-03-02T14:36:58;13.20;99.90
22491;DHT22;11412;50.802;4.350;2024-03-02T14:39:25;13.20;99.90
22491;DHT22;11412;50.802;4.350;2024-03-02T14:41:51;13.30;99.90
22491;DHT22;11412;50.802;4.350;2024-03-02T14:44:16;13.40;99.90
22491;DHT22;11412;50.802;4.350;2024-03-02T14:46:43;13.40;99.90
22491;DHT22;11412;50.802;4.350;2024-03-02T14:49:09;13.40;99.90
22491;DHT22;11412;50.802;4.350;2024-03-02T14:51:36;13.40;99.90
22491;DHT22;11412;50.802;4.350;2024-03-02T14:54:01;13.30;99.90
22491;DHT22;11412;50.802;4.350;2024-03-02T14:56:28;13.10;99.90
22491;DHT22;11412;50.802;4.350;2024-03-02T14:58:54;13.10;99.90
22491;DHT22;11412;50.802;4.350;2024-03-02T15:01:19;13.50;99.90
22491;DHT22;11412;50.802;4.350;2024-03-02T15:03:48;13.60;99.90
22491;DHT22;11412;50.802;4.350;2024-03-02T15:06:14;13.30;99.90
22491;DHT22;11412;50.802;4.350;2024-03-02T15:08:40;13.30;99.90
22491;DHT22;11412;50.802;4.350;2024-03-02T15:11:08;13.20;99.90
22491;DHT22;11412;50.802;4.350;2024-03-02T15:13:34;13.20;99.90
22491;DHT22;11412;50.802;4.350;2024-03-02T15:15:59;13.50;99.90
22491;DHT22;11412;50.802;4.350;2024-03-02T15:18:25;13.40;99.90
22491;DHT22;11412;50.802;4.350;2024-03-02T15:20:52;13.20;99.90
22491;DHT22;11412;50.802;4.350;2024-03-02T15:23:17;13.00;99.90
22491;DHT22;11412;50.802;4.350;2024-03-02T15:25:43;13.00;99.90
22491;DHT22;11412;50.802;4.350;2024-03-02T15:28:09;12.60;99.90
22491;DHT22;11412;50.802;4.350;2024-03-02T15:30:34;12.70;99.90
22491;DHT22;11412;50.802;4.350;2024-03-02T15:33:00;12.90;99.90
22491;DHT22;11412;50.802;4.350;2024-03-02T15:35:26;12.80;99.90
22491;DHT22;11412;50.802;4.350;2024-03-02T15:37:52;12.80;99.90
22491;DHT22;11412;50.802;4.350;2024-03-02T15:40:17;12.60;99.90
22491;DHT22;11412;50.802;4.350;2024-03-02T15:42:43;12.60;99.90
22491;DHT22;11412;50.802;4.350;2024-03-02T15:45:09;12.80;99.90
22491;DHT22;11412;50.802;4.350;2024-03-02T15:47:35;12.70;99.90
22491;DHT22;11412;50.802;4.350;2024-03-02T15:50:02;12.60;99.90
22491;DHT22;11412;50.802;4.350;2024-03-02T15:52:29;12.60;99.90
22491;DHT22;11412;50.802;4.350;2024-03-02T15:54:55;12.70;99.90
22491;DHT22;11412;50.802;4.350;2024-03-02T15:57:21;12.80;99.90
22491;DHT22;11412;50.802;4.350;2024-03-02T15:59:48;12.60;99.90